createdAt,value
2019-02-03T00:02:09.690Z,120.67
2019-02-03T00:04:39.078Z,110.07
2019-02-03T00:07:08.514Z,123.60
2019-02-03T00:09:38.080Z,114.60
2019-02-03T00:12:07.967Z,120.40
2019-02-03T00:14:37.548Z,111.53
2019-02-03T00:17:06.663Z,114.97
2019-02-03T00:19:36.523Z,110.30
2019-02-03T00:22:07.473Z,116.43
2019-02-03T00:24:36.846Z,106.90
2019-02-03T00:27:06.563Z,112.47
2019-02-03T00:29:35.730Z,104.40
2019-02-03T00:32:05.374Z,104.10
2019-02-03T00:34:34.668Z,110.40
2019-02-03T00:37:15.395Z,100.47
2019-02-03T00:39:35.398Z,98.17
2019-02-03T00:42:04.931Z,96.07
2019-02-03T00:44:33.982Z,94.27
2019-02-03T00:47:03.844Z,89.67
2019-02-03T00:49:33.038Z,88.47
2019-02-03T00:52:02.679Z,92.83
2019-02-03T00:54:32.411Z,95.47
2019-02-03T00:57:01.695Z,99.20
2019-02-03T00:59:31.519Z,99.07
2019-02-03T01:02:00.910Z,100.70
2019-02-03T01:04:30.245Z,105.67
2019-02-03T01:06:59.825Z,99.53
2019-02-03T01:09:29.371Z,103.53
2019-02-03T01:11:58.851Z,101.50
2019-02-03T01:14:28.354Z,98.83
2019-02-03T01:16:58.473Z,100.13
2019-02-03T01:19:28.274Z,96.87
2019-02-03T01:21:58.233Z,97.60
2019-02-03T01:24:27.602Z,92.80
2019-02-03T01:26:57.399Z,94.37
2019-02-03T01:29:26.925Z,89.90
2019-02-03T01:31:56.427Z,94.97
2019-02-03T01:34:26.563Z,93.97
2019-02-03T01:36:55.757Z,96.87
2019-02-03T01:39:25.384Z,98.53
2019-02-03T01:41:54.651Z,89.47
2019-02-03T01:44:24.040Z,95.40
2019-02-03T01:46:53.659Z,96.40
2019-02-03T01:49:22.836Z,91.00
2019-02-03T01:51:52.436Z,93.80
2019-02-03T01:54:21.619Z,97.53
2019-02-03T01:56:50.947Z,90.97
2019-02-03T01:59:20.346Z,99.73
2019-02-03T02:01:49.861Z,107.87
2019-02-03T02:04:19.831Z,96.70
2019-02-03T02:06:52.905Z,96.93
2019-02-03T02:09:21.462Z,91.97
2019-02-03T02:11:51.446Z,95.70
2019-02-03T02:14:21.170Z,93.37
2019-02-03T02:16:50.584Z,92.67
2019-02-03T02:19:20.538Z,92.07
2019-02-03T02:21:49.871Z,95.07
2019-02-03T02:24:20.380Z,93.23
2019-02-03T02:26:49.857Z,99.40
2019-02-03T02:29:19.285Z,95.10
2019-02-03T02:31:48.825Z,99.90
2019-02-03T02:34:18.513Z,95.47
2019-02-03T02:36:48.116Z,94.03
2019-02-03T02:39:17.517Z,85.83
2019-02-03T02:41:47.345Z,102.77
2019-02-03T02:44:17.286Z,94.33
2019-02-03T02:46:46.957Z,90.03
2019-02-03T02:49:16.203Z,94.60
2019-02-03T02:51:46.083Z,92.67
2019-02-03T02:54:18.811Z,100.03
2019-02-03T02:56:47.905Z,96.70
2019-02-03T02:59:17.220Z,91.07
2019-02-03T03:01:46.483Z,92.50
2019-02-03T03:04:17.880Z,96.90
2019-02-03T03:06:47.601Z,93.73
2019-02-03T03:09:18.041Z,104.10
2019-02-03T03:11:47.253Z,99.53
2019-02-03T03:14:16.861Z,97.87
2019-02-03T03:16:46.486Z,99.63
2019-02-03T03:19:15.926Z,96.27
2019-02-03T03:21:45.744Z,95.17
2019-02-03T03:24:15.363Z,101.67
2019-02-03T03:26:44.713Z,97.53
2019-02-03T03:29:14.066Z,97.97
2019-02-03T03:31:45.200Z,95.17
2019-02-03T03:34:15.824Z,105.87
2019-02-03T03:36:45.365Z,103.03
2019-02-03T03:39:15.021Z,102.43
2019-02-03T03:41:44.383Z,102.03
2019-02-03T03:44:14.243Z,99.30
2019-02-03T03:46:43.562Z,100.43
2019-02-03T03:49:13.049Z,110.63
2019-02-03T03:51:42.856Z,100.83
2019-02-03T03:54:12.686Z,108.37
2019-02-03T03:56:42.401Z,99.00
2019-02-03T03:59:11.784Z,100.40
2019-02-03T04:01:41.528Z,99.53
2019-02-03T04:04:10.964Z,99.60
2019-02-03T04:06:40.368Z,100.10
2019-02-03T04:09:10.536Z,98.87
2019-02-03T04:11:40.216Z,95.10
2019-02-03T04:14:09.394Z,102.50
2019-02-03T04:16:38.698Z,103.03
2019-02-03T04:19:08.244Z,101.40
2019-02-03T04:21:38.435Z,109.23
2019-02-03T04:24:08.005Z,103.13
2019-02-03T04:26:37.342Z,107.13
2019-02-03T04:29:07.313Z,107.20
2019-02-03T04:31:36.961Z,102.73
2019-02-03T04:34:06.525Z,100.37
2019-02-03T04:36:36.104Z,107.23
2019-02-03T04:39:07.162Z,101.37
2019-02-03T04:41:37.047Z,99.20
2019-02-03T04:44:06.491Z,100.97
2019-02-03T04:46:36.162Z,97.07
2019-02-03T04:49:05.640Z,95.67
2019-02-03T04:51:35.467Z,102.17
2019-02-03T04:54:05.113Z,99.97
2019-02-03T04:56:34.670Z,93.77
2019-02-03T04:59:04.430Z,93.10
2019-02-03T05:01:34.270Z,93.57
2019-02-03T05:04:05.257Z,99.80
2019-02-03T05:06:34.250Z,99.47
2019-02-03T05:09:11.215Z,98.63
2019-02-03T05:11:42.816Z,93.50
2019-02-03T05:14:12.582Z,97.57
2019-02-03T05:16:42.268Z,90.00
2019-02-03T05:19:12.435Z,91.63
2019-02-03T05:21:43.093Z,87.37
2019-02-03T05:24:12.810Z,94.70
2019-02-03T05:26:42.053Z,87.87
2019-02-03T05:29:12.049Z,90.13
2019-02-03T05:31:41.846Z,95.93
2019-02-03T05:34:11.258Z,95.23
2019-02-03T05:36:41.034Z,92.47
2019-02-03T05:39:23.883Z,94.60
2019-02-03T05:41:41.297Z,101.23
2019-02-03T05:44:11.741Z,94.30
2019-02-03T05:46:41.617Z,90.33
2019-02-03T05:49:11.169Z,94.73
2019-02-03T05:51:40.438Z,87.60
2019-02-03T05:54:09.650Z,96.53
2019-02-03T05:56:39.596Z,90.07
2019-02-03T05:59:09.259Z,91.57
2019-02-03T06:01:39.113Z,95.40
2019-02-03T06:04:08.336Z,102.23
2019-02-03T06:06:37.803Z,105.37
2019-02-03T06:09:08.388Z,97.10
2019-02-03T06:11:37.627Z,100.87
2019-02-03T06:14:07.175Z,102.37
2019-02-03T06:16:36.549Z,117.27
2019-02-03T06:19:05.980Z,100.87
2019-02-03T06:21:35.767Z,97.00
2019-02-03T06:24:04.904Z,96.00
2019-02-03T06:26:34.717Z,95.00
2019-02-03T06:29:04.441Z,95.27
2019-02-03T06:31:33.760Z,91.50
2019-02-03T06:34:03.044Z,88.63
2019-02-03T06:36:32.069Z,97.40
2019-02-03T06:39:01.474Z,95.07
2019-02-03T06:41:31.020Z,93.40
2019-02-03T06:44:00.357Z,99.07
2019-02-03T06:46:47.548Z,94.87
2019-02-03T06:49:26.879Z,89.07
2019-02-03T06:51:56.383Z,90.63
2019-02-03T06:54:26.212Z,98.40
2019-02-03T06:56:55.809Z,88.37
2019-02-03T06:59:25.407Z,90.87
2019-02-03T07:01:54.708Z,85.33
2019-02-03T07:04:24.207Z,87.70
2019-02-03T07:06:53.926Z,79.53
2019-02-03T07:09:23.239Z,81.50
2019-02-03T07:11:52.858Z,78.17
2019-02-03T07:14:22.414Z,77.27
2019-02-03T07:16:51.721Z,67.87
2019-02-03T07:19:21.872Z,67.80
2019-02-03T07:21:51.470Z,59.00
2019-02-03T07:24:21.552Z,58.60
2019-02-03T07:26:51.268Z,56.63
2019-02-03T07:29:20.811Z,54.50
2019-02-03T07:31:49.997Z,55.23
2019-02-03T07:34:19.612Z,55.23
2019-02-03T07:36:48.798Z,60.17
2019-02-03T07:39:18.400Z,55.83
2019-02-03T07:41:47.931Z,57.43
2019-02-03T07:44:18.208Z,53.67
2019-02-03T07:46:47.792Z,53.07
2019-02-03T07:49:17.938Z,49.07
2019-02-03T07:51:47.192Z,45.47
2019-02-03T07:54:16.957Z,47.57
2019-02-03T07:56:46.594Z,44.27
2019-02-03T07:59:15.872Z,44.60
2019-02-03T08:01:45.321Z,45.73
2019-02-03T08:04:15.079Z,40.97
2019-02-03T08:06:44.611Z,38.80
2019-02-03T08:09:14.371Z,40.27
2019-02-03T08:11:43.799Z,37.60
2019-02-03T08:14:13.815Z,36.60
2019-02-03T08:16:43.521Z,37.20
2019-02-03T08:19:13.441Z,35.73
2019-02-03T08:21:42.683Z,34.57
2019-02-03T08:24:12.130Z,29.87
2019-02-03T08:26:41.919Z,33.77
2019-02-03T08:29:14.464Z,30.97
2019-02-03T08:31:42.791Z,33.63
2019-02-03T08:34:11.992Z,35.77
2019-02-03T08:36:41.392Z,32.07
2019-02-03T08:39:11.110Z,33.77
2019-02-03T08:41:43.885Z,38.67
2019-02-03T08:44:16.019Z,36.00
2019-02-03T08:46:46.120Z,40.67
2019-02-03T08:49:15.670Z,37.50
2019-02-03T08:51:45.961Z,43.13
2019-02-03T08:54:16.013Z,37.23
2019-02-03T08:56:45.367Z,41.13
2019-02-03T08:59:14.661Z,40.67
2019-02-03T09:01:44.184Z,40.90
2019-02-03T09:04:15.412Z,41.83
2019-02-03T09:06:44.597Z,43.47
2019-02-03T09:09:13.778Z,43.73
2019-02-03T09:11:46.291Z,39.87
2019-02-03T09:14:16.031Z,38.87
2019-02-03T09:16:45.203Z,37.27
2019-02-03T09:19:14.628Z,41.97
2019-02-03T09:21:44.364Z,39.03
2019-02-03T09:24:13.683Z,35.77
2019-02-03T09:26:42.969Z,39.23
2019-02-03T09:29:12.391Z,38.90
2019-02-03T09:31:42.184Z,41.50
2019-02-03T09:34:11.434Z,39.33
2019-02-03T09:36:40.751Z,38.83
2019-02-03T09:39:11.522Z,39.90
2019-02-03T09:41:41.182Z,29.90
2019-02-03T09:44:10.483Z,31.17
2019-02-03T09:46:40.270Z,31.10
2019-02-03T09:49:13.105Z,26.80
2019-02-03T09:51:42.556Z,28.37
2019-02-03T09:54:12.079Z,29.50
2019-02-03T09:56:42.911Z,31.37
2019-02-03T09:59:12.906Z,29.33
2019-02-03T10:01:42.224Z,28.97
2019-02-03T10:04:11.596Z,31.17
2019-02-03T10:06:41.031Z,32.30
2019-02-03T10:09:10.837Z,25.43
2019-02-03T10:11:40.160Z,27.17
2019-02-03T10:14:10.171Z,28.73
2019-02-03T10:16:39.861Z,21.73
2019-02-03T10:19:09.598Z,23.33
2019-02-03T10:21:38.853Z,20.53
2019-02-03T10:24:08.264Z,22.37
2019-02-03T10:26:40.960Z,20.80
2019-02-03T10:29:10.274Z,20.60
2019-02-03T10:31:39.542Z,20.43
2019-02-03T10:34:08.671Z,21.73
2019-02-03T10:36:38.189Z,20.50
2019-02-03T10:39:09.040Z,19.40
2019-02-03T10:41:38.647Z,19.87
2019-02-03T10:44:08.266Z,25.87
2019-02-03T10:46:37.501Z,20.97
2019-02-03T10:49:07.800Z,18.60
2019-02-03T10:51:37.137Z,22.10
2019-02-03T10:54:06.496Z,22.03
2019-02-03T10:56:36.051Z,24.07
2019-02-03T10:59:05.837Z,24.43
2019-02-03T11:01:35.522Z,26.40
2019-02-03T11:04:05.881Z,22.73
2019-02-03T11:06:35.317Z,20.67
2019-02-03T11:09:08.714Z,27.07
2019-02-03T11:11:37.951Z,27.00
2019-02-03T11:14:07.994Z,26.30
2019-02-03T11:16:37.137Z,24.83
2019-02-03T11:19:06.612Z,24.17
2019-02-03T11:21:35.960Z,22.00
2019-02-03T11:24:05.888Z,30.57
2019-02-03T11:26:34.975Z,18.83
2019-02-03T11:29:04.540Z,18.00
2019-02-03T11:31:33.810Z,20.43
2019-02-03T11:34:03.673Z,20.97
2019-02-03T11:36:32.980Z,24.00
2019-02-03T11:39:02.563Z,22.40
2019-02-03T11:41:32.299Z,24.60
2019-02-03T11:44:02.000Z,23.47
2019-02-03T11:46:31.476Z,20.47
2019-02-03T11:49:00.950Z,20.73
2019-02-03T11:51:30.398Z,24.60
2019-02-03T11:53:59.718Z,20.93
2019-02-03T11:56:29.931Z,19.43
2019-02-03T11:58:59.745Z,22.40
2019-02-03T12:01:29.105Z,21.80
2019-02-03T12:03:58.324Z,20.63
2019-02-03T12:06:28.335Z,22.90
2019-02-03T12:08:57.971Z,18.67
2019-02-03T12:11:27.262Z,18.03
2019-02-03T12:13:56.659Z,20.90
2019-02-03T12:16:25.850Z,19.80
2019-02-03T12:18:55.025Z,20.30
2019-02-03T12:21:30.516Z,20.10
2019-02-03T12:23:59.806Z,17.53
2019-02-03T12:26:29.266Z,22.20
2019-02-03T12:28:58.392Z,19.87
2019-02-03T12:31:27.549Z,20.77
2019-02-03T12:33:56.894Z,21.10
2019-02-03T12:36:26.131Z,17.97
2019-02-03T12:38:55.298Z,35.80
2019-02-03T12:41:26.822Z,17.93
2019-02-03T12:43:56.467Z,18.60
2019-02-03T12:46:25.535Z,15.73
2019-02-03T12:48:55.004Z,14.03
2019-02-03T12:51:24.215Z,16.87
2019-02-03T12:53:53.560Z,14.33
2019-02-03T12:56:22.930Z,23.73
2019-02-03T12:58:52.969Z,32.63
2019-02-03T13:01:22.011Z,19.43
2019-02-03T13:03:51.601Z,32.60
2019-02-03T13:06:21.296Z,25.30
2019-02-03T13:08:50.451Z,20.27
2019-02-03T13:11:19.731Z,20.70
2019-02-03T13:13:49.782Z,17.67
2019-02-03T13:16:20.620Z,17.20
2019-02-03T13:18:50.280Z,15.80
2019-02-03T13:21:19.464Z,15.03
2019-02-03T13:23:48.733Z,13.77
2019-02-03T13:26:18.712Z,13.77
2019-02-03T13:28:48.214Z,15.47
2019-02-03T13:31:17.516Z,13.53
2019-02-03T13:33:46.838Z,15.70
2019-02-03T13:36:15.730Z,11.03
2019-02-03T13:38:45.360Z,12.07
2019-02-03T13:41:14.633Z,12.00
2019-02-03T13:43:44.049Z,11.20
2019-02-03T13:46:13.411Z,11.03
2019-02-03T13:48:42.817Z,12.60
2019-02-03T13:51:12.004Z,10.77
2019-02-03T13:53:41.419Z,9.30
2019-02-03T13:56:11.033Z,10.90
2019-02-03T13:58:40.394Z,8.77
2019-02-03T14:01:09.951Z,10.33
2019-02-03T14:03:39.191Z,10.60
2019-02-03T14:06:08.900Z,8.30
2019-02-03T14:08:38.062Z,10.07
2019-02-03T14:11:07.393Z,12.23
2019-02-03T14:13:36.834Z,10.23
2019-02-03T14:16:06.440Z,9.17
2019-02-03T14:18:35.712Z,9.53
2019-02-03T14:21:08.112Z,12.20
2019-02-03T14:23:39.079Z,9.17
2019-02-03T14:26:08.438Z,8.57
2019-02-03T14:28:37.710Z,8.97
2019-02-03T14:31:06.980Z,8.40
2019-02-03T14:33:36.108Z,10.13
2019-02-03T14:36:06.089Z,7.43
2019-02-03T14:38:35.536Z,8.53
2019-02-03T14:41:05.173Z,8.07
2019-02-03T14:43:34.614Z,6.87
2019-02-03T14:46:04.465Z,8.47
2019-02-03T14:48:33.920Z,7.80
2019-02-03T14:51:03.160Z,8.00
2019-02-03T14:53:32.912Z,8.30
2019-02-03T14:56:02.528Z,5.17
2019-02-03T14:58:32.017Z,6.60
2019-02-03T15:01:01.376Z,7.50
2019-02-03T15:03:31.097Z,5.03
2019-02-03T15:06:00.145Z,7.47
2019-02-03T15:08:29.177Z,7.63
2019-02-03T15:10:58.733Z,7.10
2019-02-03T15:13:28.061Z,7.30
2019-02-03T15:15:57.705Z,6.70
2019-02-03T15:18:26.896Z,6.33
2019-02-03T15:20:58.071Z,7.23
2019-02-03T15:23:27.238Z,8.93
2019-02-03T15:25:59.348Z,9.43
2019-02-03T15:28:28.709Z,6.07
2019-02-03T15:30:57.993Z,8.27
2019-02-03T15:33:27.305Z,12.53
2019-02-03T15:35:56.504Z,9.77
2019-02-03T15:38:26.122Z,7.50
2019-02-03T15:40:55.556Z,8.93
2019-02-03T15:43:25.894Z,7.90
2019-02-03T15:45:55.533Z,9.50
2019-02-03T15:48:24.647Z,9.90
2019-02-03T15:50:54.225Z,10.03
2019-02-03T15:53:23.536Z,8.90
2019-02-03T15:55:52.736Z,9.43
2019-02-03T15:58:21.816Z,8.03
2019-02-03T16:00:52.093Z,7.60
2019-02-03T16:03:21.449Z,9.10
2019-02-03T16:05:51.374Z,7.47
2019-02-03T16:08:20.579Z,9.57
2019-02-03T16:10:50.253Z,12.37
2019-02-03T16:13:19.429Z,7.80
2019-02-03T16:15:48.918Z,9.37
2019-02-03T16:18:18.408Z,9.47
2019-02-03T16:20:47.909Z,11.10
2019-02-03T16:23:17.153Z,10.77
2019-02-03T16:25:46.908Z,10.97
2019-02-03T16:28:17.538Z,9.70
2019-02-03T16:30:47.135Z,7.97
2019-02-03T16:33:16.244Z,7.93
2019-02-03T16:35:45.777Z,8.70
2019-02-03T16:38:22.489Z,12.60
2019-02-03T16:40:45.762Z,9.73
2019-02-03T16:43:15.444Z,8.30
2019-02-03T16:45:44.846Z,10.10
2019-02-03T16:48:14.820Z,16.27
2019-02-03T16:50:44.414Z,9.17
2019-02-03T16:53:13.564Z,9.37
2019-02-03T16:55:42.864Z,12.87
2019-02-03T16:58:12.229Z,14.67
2019-02-03T17:00:41.735Z,33.30
2019-02-03T17:03:11.446Z,33.30
2019-02-03T17:05:40.890Z,38.30
2019-02-03T17:08:10.065Z,22.67
2019-02-03T17:10:39.240Z,22.23
2019-02-03T17:13:08.691Z,13.83
2019-02-03T17:15:39.613Z,10.47
2019-02-03T17:18:09.531Z,10.77
2019-02-03T17:20:38.897Z,12.07
2019-02-03T17:23:08.497Z,9.97
2019-02-03T17:25:39.335Z,9.77
2019-02-03T17:28:08.720Z,13.83
2019-02-03T17:30:37.976Z,11.43
2019-02-03T17:33:07.159Z,7.47
2019-02-03T17:35:36.577Z,13.33
2019-02-03T17:38:06.070Z,12.27
2019-02-03T17:40:35.450Z,16.23
2019-02-03T17:43:05.559Z,18.40
2019-02-03T17:45:34.960Z,12.27
2019-02-03T17:48:06.720Z,9.53
2019-02-03T17:50:36.140Z,26.23
2019-02-03T17:53:06.381Z,24.20
2019-02-03T17:55:35.643Z,16.03
2019-02-03T17:58:04.856Z,14.23
2019-02-03T18:00:47.210Z,10.87
2019-02-03T18:03:16.660Z,10.70
2019-02-03T18:05:46.316Z,12.53
2019-02-03T18:08:15.912Z,11.73
2019-02-03T18:10:45.244Z,7.67
2019-02-03T18:13:15.470Z,10.10
2019-02-03T18:15:44.795Z,15.00
2019-02-03T18:18:13.965Z,8.13
2019-02-03T18:20:43.328Z,10.83
2019-02-03T18:23:12.784Z,9.60
2019-02-03T18:25:42.089Z,8.63
2019-02-03T18:28:11.277Z,14.23
2019-02-03T18:30:40.490Z,9.80
2019-02-03T18:33:10.130Z,10.90
2019-02-03T18:35:39.183Z,10.33
2019-02-03T18:38:09.491Z,11.10
2019-02-03T18:40:38.796Z,15.23
2019-02-03T18:43:08.956Z,11.97
2019-02-03T18:45:38.283Z,13.43
2019-02-03T18:48:07.532Z,10.50
2019-02-03T18:50:37.945Z,20.77
2019-02-03T18:53:07.464Z,11.50
2019-02-03T18:55:37.506Z,12.43
2019-02-03T18:58:09.098Z,14.83
2019-02-03T19:00:38.741Z,31.37
2019-02-03T19:03:08.661Z,26.03
2019-02-03T19:05:38.790Z,21.13
2019-02-03T19:08:08.456Z,21.67
2019-02-03T19:10:38.268Z,18.10
2019-02-03T19:13:07.680Z,18.67
2019-02-03T19:15:36.890Z,25.57
2019-02-03T19:18:06.621Z,17.13
2019-02-03T19:20:36.527Z,12.47
2019-02-03T19:23:06.554Z,13.70
2019-02-03T19:25:35.710Z,12.63
2019-02-03T19:28:05.405Z,15.50
2019-02-03T19:30:35.151Z,10.60
2019-02-03T19:33:04.573Z,12.17
2019-02-03T19:35:33.985Z,13.17
2019-02-03T19:38:06.570Z,17.13
2019-02-03T19:40:35.317Z,13.97
2019-02-03T19:43:05.301Z,17.57
2019-02-03T19:45:34.494Z,17.73
2019-02-03T19:48:03.880Z,22.40
2019-02-03T19:50:33.920Z,17.43
2019-02-03T19:53:03.408Z,14.90
2019-02-03T19:55:32.741Z,13.40
2019-02-03T19:58:02.548Z,13.97
2019-02-03T20:00:35.446Z,11.67
2019-02-03T20:03:05.627Z,14.50
2019-02-03T20:05:35.057Z,15.78
2019-02-03T20:08:05.039Z,20.57
2019-02-03T20:10:34.416Z,21.10
2019-02-03T20:13:03.788Z,15.27
2019-02-03T20:15:32.851Z,15.13
2019-02-03T20:18:02.460Z,15.18
2019-02-03T20:20:32.639Z,16.40
2019-02-03T20:23:06.449Z,12.07
2019-02-03T20:25:34.899Z,13.37
2019-02-03T20:28:04.681Z,12.23
2019-02-03T20:30:38.700Z,22.27
2019-02-03T20:33:05.989Z,21.13
2019-02-03T20:35:35.316Z,21.67
2019-02-03T20:38:04.856Z,16.57
2019-02-03T20:40:35.268Z,15.90
2019-02-03T20:43:05.036Z,18.07
2019-02-03T20:45:36.200Z,13.23
2019-02-03T20:48:05.785Z,16.20
2019-02-03T20:50:35.673Z,16.17
2019-02-03T20:53:05.288Z,18.07
2019-02-03T20:55:34.736Z,16.30
2019-02-03T20:58:04.307Z,14.70
2019-02-03T21:00:34.196Z,24.77
2019-02-03T21:03:03.778Z,18.90
2019-02-03T21:05:33.533Z,18.00
2019-02-03T21:08:03.115Z,16.20
2019-02-03T21:10:32.406Z,15.67
2019-02-03T21:13:10.681Z,21.55
2019-02-03T21:15:34.159Z,14.63
2019-02-03T21:18:03.803Z,18.43
2019-02-03T21:20:34.129Z,19.97
2019-02-03T21:23:03.623Z,16.87
2019-02-03T21:25:33.269Z,17.07
2019-02-03T21:28:02.695Z,19.02
2019-02-03T21:30:33.194Z,42.67
2019-02-03T21:33:02.735Z,25.30
2019-02-03T21:35:32.318Z,32.70
2019-02-03T21:38:02.082Z,22.02
2019-02-03T21:40:31.762Z,23.65
2019-02-03T21:43:01.420Z,25.67
2019-02-03T21:45:30.892Z,27.80
2019-02-03T21:48:00.307Z,28.03
2019-02-03T21:50:29.653Z,24.57
2019-02-03T21:52:59.158Z,24.07
2019-02-03T21:55:28.739Z,27.87
2019-02-03T21:57:58.062Z,24.07
2019-02-03T22:00:28.696Z,24.92
2019-02-03T22:02:57.981Z,22.52
2019-02-03T22:05:27.605Z,27.13
2019-02-03T22:07:56.774Z,25.08
2019-02-03T22:10:27.418Z,23.47
2019-02-03T22:12:56.631Z,22.48
2019-02-03T22:15:26.136Z,23.10
2019-02-03T22:17:55.673Z,22.87
2019-02-03T22:20:25.188Z,24.25
2019-02-03T22:22:54.457Z,21.75
2019-02-03T22:25:23.954Z,22.02
2019-02-03T22:27:53.719Z,28.10
2019-02-03T22:30:33.323Z,16.70
2019-02-03T22:33:02.703Z,19.62
2019-02-03T22:35:32.211Z,17.52
2019-02-03T22:38:01.808Z,18.37
2019-02-03T22:40:31.893Z,18.17
2019-02-03T22:43:01.086Z,20.48
2019-02-03T22:45:30.645Z,18.30
2019-02-03T22:48:00.122Z,20.15
2019-02-03T22:50:30.350Z,19.23
2019-02-03T22:52:59.730Z,22.70
2019-02-03T22:55:29.144Z,18.25
2019-02-03T22:57:58.470Z,16.48
2019-02-03T23:00:59.457Z,20.72
2019-02-03T23:03:42.670Z,20.15
2019-02-03T23:06:12.112Z,20.60
2019-02-03T23:08:41.372Z,19.25
2019-02-03T23:11:10.727Z,19.50
2019-02-03T23:13:40.358Z,20.15
2019-02-03T23:16:17.977Z,22.75
2019-02-03T23:18:41.996Z,19.87
2019-02-03T23:21:11.670Z,20.20
2019-02-03T23:23:41.071Z,22.00
2019-02-03T23:26:10.484Z,28.02
2019-02-03T23:28:39.982Z,25.88
2019-02-03T23:31:09.310Z,20.68
2019-02-03T23:33:38.701Z,25.40
2019-02-03T23:36:07.983Z,21.77
2019-02-03T23:38:37.303Z,25.45
2019-02-03T23:41:06.749Z,29.12
2019-02-03T23:43:36.186Z,24.82
2019-02-03T23:46:05.517Z,28.70
2019-02-03T23:48:34.908Z,26.33
2019-02-03T23:51:04.284Z,25.97
2019-02-03T23:53:34.021Z,29.65
2019-02-03T23:56:03.397Z,31.87
2019-02-03T23:58:32.708Z,26.30
